createdAt,value
2023-03-05T00:00:16.405Z,15.00
2023-03-05T00:00:49.080Z,12.80
2023-03-05T00:01:21.743Z,12.10
2023-03-05T00:01:54.409Z,13.30
2023-03-05T00:02:27.133Z,12.80
2023-03-05T00:02:59.886Z,15.40
2023-03-05T00:03:32.573Z,14.30
2023-03-05T00:04:05.235Z,14.60
2023-03-05T00:04:37.880Z,11.80
2023-03-05T00:05:10.552Z,17.30
2023-03-05T00:05:43.246Z,12.70
2023-03-05T00:06:15.934Z,16.00
2023-03-05T00:06:48.581Z,13.10
2023-03-05T00:07:21.252Z,12.20
2023-03-05T00:07:53.913Z,15.60
2023-03-05T00:08:26.583Z,12.70
2023-03-05T00:08:59.273Z,15.40
2023-03-05T00:09:31.914Z,13.00
2023-03-05T00:10:03.034Z,14.70
2023-03-05T00:10:35.701Z,14.10
2023-03-05T00:11:08.361Z,17.20
2023-03-05T00:11:41.037Z,16.40
2023-03-05T00:12:13.700Z,15.80
2023-03-05T00:12:46.363Z,17.10
2023-03-05T00:13:19.030Z,13.90
2023-03-05T00:13:51.709Z,14.80
2023-03-05T00:14:24.378Z,14.40
2023-03-05T00:14:57.043Z,16.00
2023-03-05T00:15:29.703Z,16.10
2023-03-05T00:16:02.397Z,17.90
2023-03-05T00:16:35.070Z,14.90
2023-03-05T00:17:07.764Z,16.00
2023-03-05T00:17:40.460Z,14.10
2023-03-05T00:18:13.127Z,13.80
2023-03-05T00:18:45.791Z,12.90
2023-03-05T00:19:18.451Z,11.90
2023-03-05T00:19:51.123Z,12.50
2023-03-05T00:20:23.824Z,16.40
2023-03-05T00:20:56.462Z,12.80
2023-03-05T00:21:29.179Z,16.40
2023-03-05T00:22:01.814Z,12.60
2023-03-05T00:22:34.494Z,15.30
2023-03-05T00:23:07.165Z,14.30
2023-03-05T00:23:39.883Z,10.90
2023-03-05T00:24:12.546Z,13.00
2023-03-05T00:24:45.219Z,15.90
2023-03-05T00:25:17.873Z,14.90
2023-03-05T00:25:50.536Z,15.70
2023-03-05T00:26:23.229Z,17.00
2023-03-05T00:26:55.904Z,18.00
2023-03-05T00:27:28.575Z,13.00
2023-03-05T00:28:01.250Z,10.50
2023-03-05T00:28:33.942Z,11.20
2023-03-05T00:29:06.642Z,13.40
2023-03-05T00:29:39.314Z,14.60
2023-03-05T00:30:11.988Z,13.60
2023-03-05T00:30:44.658Z,12.80
2023-03-05T00:31:17.420Z,9.80
2023-03-05T00:31:50.158Z,14.60
2023-03-05T00:32:22.878Z,13.60
2023-03-05T00:32:55.504Z,11.50
2023-03-05T00:33:28.173Z,13.50
2023-03-05T00:34:00.854Z,13.70
2023-03-05T00:34:33.516Z,14.10
2023-03-05T00:35:06.191Z,13.50
2023-03-05T00:35:38.914Z,14.90
2023-03-05T00:36:11.568Z,12.00
2023-03-05T00:36:44.271Z,15.90
2023-03-05T00:37:16.948Z,18.70
2023-03-05T00:37:49.612Z,13.80
2023-03-05T00:38:22.274Z,12.00
2023-03-05T00:38:54.933Z,13.10
2023-03-05T00:39:27.607Z,14.60
2023-03-05T00:40:00.399Z,11.60
2023-03-05T00:40:33.141Z,12.40
2023-03-05T00:41:05.816Z,14.00
2023-03-05T00:41:38.510Z,19.80
2023-03-05T00:42:11.179Z,16.80
2023-03-05T00:42:43.859Z,13.50
2023-03-05T00:43:16.512Z,14.60
2023-03-05T00:43:49.195Z,16.00
2023-03-05T00:44:21.866Z,13.00
2023-03-05T00:44:54.544Z,16.70
2023-03-05T00:45:27.209Z,17.20
2023-03-05T00:45:59.878Z,12.90
2023-03-05T00:46:32.626Z,14.70
2023-03-05T00:47:05.292Z,14.00
2023-03-05T00:47:37.955Z,14.80
2023-03-05T00:48:10.642Z,15.20
2023-03-05T00:48:43.291Z,11.40
2023-03-05T00:49:15.972Z,12.60
2023-03-05T00:49:48.646Z,10.90
2023-03-05T00:50:21.323Z,13.50
2023-03-05T00:50:53.992Z,13.70
2023-03-05T00:51:26.690Z,14.10
2023-03-05T00:51:59.380Z,13.30
2023-03-05T00:52:32.016Z,16.20
2023-03-05T00:53:04.685Z,13.50
2023-03-05T00:53:37.366Z,13.10
2023-03-05T00:54:10.030Z,15.10
2023-03-05T00:54:42.701Z,16.50
2023-03-05T00:55:15.376Z,13.00
2023-03-05T00:55:46.457Z,16.10
2023-03-05T00:56:19.181Z,13.00
2023-03-05T00:56:51.813Z,12.30
2023-03-05T00:57:24.480Z,11.70
2023-03-05T00:57:57.160Z,12.10
2023-03-05T00:58:29.834Z,14.20
2023-03-05T00:59:02.500Z,10.50
2023-03-05T00:59:35.162Z,14.10
2023-03-05T01:00:07.826Z,13.40
2023-03-05T01:00:40.602Z,13.80
2023-03-05T01:01:13.276Z,15.70
2023-03-05T01:01:46.014Z,14.20
2023-03-05T01:02:18.691Z,13.60
2023-03-05T01:02:51.376Z,12.00
2023-03-05T01:03:24.053Z,13.90
2023-03-05T01:03:56.731Z,11.00
2023-03-05T01:04:29.441Z,12.30
2023-03-05T01:05:02.124Z,15.80
2023-03-05T01:05:34.830Z,13.30
2023-03-05T01:06:07.559Z,12.00
2023-03-05T01:06:40.264Z,8.10
2023-03-05T01:07:12.949Z,13.20
2023-03-05T01:07:45.623Z,15.00
2023-03-05T01:08:18.296Z,11.00
2023-03-05T01:08:51.011Z,12.00
2023-03-05T01:09:23.658Z,12.00
2023-03-05T01:09:56.328Z,12.10
2023-03-05T01:10:28.988Z,11.90
2023-03-05T01:11:01.661Z,11.40
2023-03-05T01:11:34.350Z,12.50
2023-03-05T01:12:07.016Z,11.10
2023-03-05T01:12:39.690Z,11.10
2023-03-05T01:13:12.355Z,11.00
2023-03-05T01:13:45.033Z,11.70
2023-03-05T01:14:17.701Z,14.10
2023-03-05T01:14:50.362Z,10.30
2023-03-05T01:15:23.034Z,13.00
2023-03-05T01:15:55.721Z,10.30
2023-03-05T01:16:28.445Z,13.90
2023-03-05T01:17:01.088Z,10.60
2023-03-05T01:17:33.771Z,11.50
2023-03-05T01:18:06.440Z,10.70
2023-03-05T01:18:39.113Z,10.90
2023-03-05T01:19:11.789Z,12.00
2023-03-05T01:19:44.472Z,12.40
2023-03-05T01:20:17.130Z,15.10
2023-03-05T01:20:49.790Z,13.60
2023-03-05T01:21:22.471Z,15.30
2023-03-05T01:21:55.134Z,13.30
2023-03-05T01:22:27.831Z,8.50
2023-03-05T01:23:00.478Z,12.00
2023-03-05T01:23:33.152Z,10.30
2023-03-05T01:24:05.825Z,13.80
2023-03-05T01:24:38.501Z,9.50
2023-03-05T01:25:11.193Z,10.50
2023-03-05T01:25:43.863Z,11.20
2023-03-05T01:26:16.558Z,11.30
2023-03-05T01:26:49.270Z,10.00
2023-03-05T01:27:21.918Z,14.20
2023-03-05T01:27:54.568Z,10.40
2023-03-05T01:28:27.230Z,10.10
2023-03-05T01:28:59.887Z,10.70
2023-03-05T01:29:32.560Z,10.00
2023-03-05T01:30:05.251Z,11.50
2023-03-05T01:30:37.891Z,11.60
2023-03-05T01:31:10.632Z,10.60
2023-03-05T01:31:43.377Z,9.80
2023-03-05T01:32:16.099Z,10.00
2023-03-05T01:32:48.736Z,11.70
2023-03-05T01:33:21.401Z,9.90
2023-03-05T01:33:54.082Z,9.80
2023-03-05T01:34:26.753Z,9.80
2023-03-05T01:34:59.416Z,8.00
2023-03-05T01:35:32.118Z,8.80
2023-03-05T01:36:04.773Z,12.20
2023-03-05T01:36:37.460Z,8.40
2023-03-05T01:37:10.129Z,12.10
2023-03-05T01:37:42.825Z,12.70
2023-03-05T01:38:15.506Z,7.60
2023-03-05T01:38:48.175Z,7.70
2023-03-05T01:39:20.825Z,9.20
2023-03-05T01:39:53.496Z,11.90
2023-03-05T01:40:26.161Z,10.00
2023-03-05T01:40:58.823Z,8.20
2023-03-05T01:41:31.512Z,8.90
2023-03-05T01:42:04.196Z,7.40
2023-03-05T01:42:30.756Z,8.10
2023-03-05T01:43:03.418Z,7.20
2023-03-05T01:43:36.078Z,7.50
2023-03-05T01:44:08.757Z,8.00
2023-03-05T01:44:41.432Z,7.30
2023-03-05T01:45:14.101Z,9.00
2023-03-05T01:45:46.807Z,9.70
2023-03-05T01:46:19.463Z,9.20
2023-03-05T01:46:52.135Z,6.80
2023-03-05T01:47:24.825Z,7.60
2023-03-05T01:47:57.479Z,7.50
2023-03-05T01:48:30.329Z,10.40
2023-03-05T01:49:02.997Z,5.40
2023-03-05T01:49:35.670Z,8.20
2023-03-05T01:50:08.357Z,9.00
2023-03-05T01:50:41.018Z,10.00
2023-03-05T01:51:13.678Z,10.40
2023-03-05T01:51:46.364Z,8.20
2023-03-05T01:52:19.036Z,8.00
2023-03-05T01:52:51.735Z,7.80
2023-03-05T01:53:24.395Z,10.00
2023-03-05T01:53:57.057Z,11.40
2023-03-05T01:54:29.720Z,9.00
2023-03-05T01:55:02.372Z,10.10
2023-03-05T01:55:35.045Z,8.20
2023-03-05T01:56:07.745Z,8.60
2023-03-05T01:56:40.404Z,12.20
2023-03-05T01:57:13.077Z,7.50
2023-03-05T01:57:45.733Z,6.40
2023-03-05T01:58:18.403Z,6.80
2023-03-05T01:58:51.080Z,8.60
2023-03-05T01:59:23.761Z,8.80
2023-03-05T01:59:56.432Z,9.10
2023-03-05T02:00:29.094Z,9.60
2023-03-05T02:01:01.854Z,10.20
2023-03-05T02:01:34.547Z,7.60
2023-03-05T02:02:07.204Z,6.50
2023-03-05T02:02:39.868Z,6.70
2023-03-05T02:03:12.539Z,6.60
2023-03-05T02:03:45.328Z,8.40
2023-03-05T02:04:17.981Z,6.40
2023-03-05T02:04:50.696Z,7.60
2023-03-05T02:05:23.376Z,5.50
2023-03-05T02:05:56.056Z,7.50
2023-03-05T02:06:28.733Z,6.10
2023-03-05T02:07:01.392Z,6.10
2023-03-05T02:07:34.064Z,7.10
2023-03-05T02:08:06.764Z,9.40
2023-03-05T02:08:39.417Z,8.90
2023-03-05T02:09:12.082Z,7.90
2023-03-05T02:09:44.787Z,7.40
2023-03-05T02:10:17.429Z,7.70
2023-03-05T02:10:50.105Z,6.80
2023-03-05T02:11:22.790Z,8.60
2023-03-05T02:11:55.474Z,6.90
2023-03-05T02:12:28.144Z,6.60
2023-03-05T02:13:00.824Z,8.80
2023-03-05T02:13:33.502Z,5.50
2023-03-05T02:14:07.835Z,6.30
2023-03-05T02:14:35.791Z,7.90
2023-03-05T02:15:08.466Z,8.80
2023-03-05T02:15:41.127Z,7.80
2023-03-05T02:16:13.898Z,6.50
2023-03-05T02:16:46.685Z,9.20
2023-03-05T02:17:19.340Z,9.20
2023-03-05T02:17:50.422Z,6.90
2023-03-05T02:18:23.082Z,7.20
2023-03-05T02:18:55.767Z,6.80
2023-03-05T02:19:28.451Z,10.20
2023-03-05T02:20:01.143Z,8.10
2023-03-05T02:20:32.213Z,6.80
2023-03-05T02:21:04.894Z,8.50
2023-03-05T02:21:37.568Z,8.40
2023-03-05T02:22:10.235Z,7.50
2023-03-05T02:22:42.918Z,7.50
2023-03-05T02:23:15.600Z,7.80
2023-03-05T02:23:48.252Z,6.90
2023-03-05T02:24:20.939Z,7.10
2023-03-05T02:24:53.610Z,10.00
2023-03-05T02:25:26.280Z,7.70
2023-03-05T02:25:58.950Z,6.80
2023-03-05T02:26:31.653Z,7.60
2023-03-05T02:27:04.313Z,8.30
2023-03-05T02:27:36.984Z,7.90
2023-03-05T02:28:09.659Z,8.60
2023-03-05T02:28:42.325Z,8.90
2023-03-05T02:29:14.985Z,8.30
2023-03-05T02:29:47.686Z,9.60
2023-03-05T02:30:20.337Z,5.90
2023-03-05T02:30:52.999Z,6.80
2023-03-05T02:31:25.749Z,6.40
2023-03-05T02:31:58.510Z,7.20
2023-03-05T02:32:31.244Z,5.80
2023-03-05T02:33:03.881Z,9.50
2023-03-05T02:33:36.561Z,5.10
2023-03-05T02:34:09.232Z,5.70
2023-03-05T02:34:41.885Z,6.30
2023-03-05T02:35:14.562Z,5.80
2023-03-05T02:35:47.302Z,10.20
2023-03-05T02:36:19.963Z,6.30
2023-03-05T02:36:52.638Z,11.60
2023-03-05T02:37:25.302Z,6.70
2023-03-05T02:37:57.977Z,9.20
2023-03-05T02:38:30.669Z,8.00
2023-03-05T02:39:03.328Z,6.60
2023-03-05T02:39:35.998Z,8.20
2023-03-05T02:40:08.659Z,6.50
2023-03-05T02:40:41.415Z,5.10
2023-03-05T02:41:14.091Z,6.40
2023-03-05T02:41:46.768Z,8.10
2023-03-05T02:42:19.436Z,7.30
2023-03-05T02:42:52.117Z,4.90
2023-03-05T02:43:24.788Z,6.10
2023-03-05T02:43:57.451Z,5.80
2023-03-05T02:44:30.133Z,5.90
2023-03-05T02:45:02.813Z,6.20
2023-03-05T02:45:35.518Z,7.80
2023-03-05T02:46:08.225Z,10.10
2023-03-05T02:46:40.927Z,7.60
2023-03-05T02:47:13.605Z,8.40
2023-03-05T02:47:46.267Z,7.10
2023-03-05T02:48:18.936Z,8.50
2023-03-05T02:48:51.611Z,9.10
2023-03-05T02:49:24.294Z,4.80
2023-03-05T02:49:56.960Z,7.00
2023-03-05T02:50:29.632Z,4.80
2023-03-05T02:51:02.304Z,5.70
2023-03-05T02:51:34.994Z,4.30
2023-03-05T02:52:07.665Z,8.20
2023-03-05T02:52:40.322Z,8.00
2023-03-05T02:53:12.979Z,7.90
2023-03-05T02:53:45.686Z,7.00
2023-03-05T02:54:18.323Z,7.10
2023-03-05T02:54:51.006Z,9.50
2023-03-05T02:55:23.680Z,6.60
2023-03-05T02:55:56.360Z,8.10
2023-03-05T02:56:29.038Z,10.20
2023-03-05T02:57:01.727Z,7.50
2023-03-05T02:57:34.366Z,6.30
2023-03-05T02:58:07.067Z,5.00
2023-03-05T02:58:39.720Z,6.50
2023-03-05T02:59:12.394Z,7.90
2023-03-05T02:59:45.113Z,5.40
2023-03-05T03:00:17.782Z,5.20
2023-03-05T03:00:50.465Z,2.90
2023-03-05T03:01:23.225Z,7.30
2023-03-05T03:01:55.943Z,4.70
2023-03-05T03:02:28.614Z,8.40
2023-03-05T03:03:01.380Z,6.30
2023-03-05T03:03:34.116Z,5.70
2023-03-05T03:04:06.774Z,8.00
2023-03-05T03:04:39.457Z,5.10
2023-03-05T03:05:12.135Z,7.50
2023-03-05T03:05:44.788Z,7.30
2023-03-05T03:06:17.463Z,6.30
2023-03-05T03:06:50.145Z,5.00
2023-03-05T03:07:22.820Z,4.80
2023-03-05T03:07:55.500Z,7.60
2023-03-05T03:08:28.167Z,6.90
2023-03-05T03:09:00.859Z,9.10
2023-03-05T03:09:33.510Z,9.40
2023-03-05T03:10:06.170Z,6.70
2023-03-05T03:10:38.841Z,6.10
2023-03-05T03:11:11.513Z,8.30
2023-03-05T03:11:44.217Z,6.90
2023-03-05T03:12:16.879Z,9.10
2023-03-05T03:12:49.568Z,7.60
2023-03-05T03:13:22.239Z,7.30
2023-03-05T03:13:54.910Z,6.80
2023-03-05T03:14:27.608Z,7.20
2023-03-05T03:15:00.263Z,5.60
2023-03-05T03:15:32.927Z,6.00
2023-03-05T03:16:05.603Z,8.30
2023-03-05T03:16:38.370Z,7.60
2023-03-05T03:17:11.011Z,7.00
2023-03-05T03:17:43.678Z,7.50
2023-03-05T03:18:16.350Z,6.90
2023-03-05T03:18:49.180Z,5.80
2023-03-05T03:19:21.833Z,7.10
2023-03-05T03:19:54.514Z,6.90
2023-03-05T03:20:27.207Z,5.20
2023-03-05T03:20:59.857Z,7.10
2023-03-05T03:21:32.532Z,6.50
2023-03-05T03:22:05.207Z,7.70
2023-03-05T03:22:37.875Z,6.10
2023-03-05T03:23:10.554Z,6.30
2023-03-05T03:23:43.221Z,4.80
2023-03-05T03:24:15.913Z,5.90
2023-03-05T03:24:48.571Z,8.80
2023-03-05T03:25:21.240Z,5.00
2023-03-05T03:25:53.903Z,5.00
2023-03-05T03:26:26.594Z,6.10
2023-03-05T03:26:59.280Z,9.30
2023-03-05T03:27:31.972Z,8.30
2023-03-05T03:28:04.642Z,8.00
2023-03-05T03:28:37.298Z,8.20
2023-03-05T03:29:09.969Z,6.20
2023-03-05T03:29:42.637Z,5.10
2023-03-05T03:30:15.310Z,7.60
2023-03-05T03:30:48.051Z,5.10
2023-03-05T03:31:20.759Z,7.60
2023-03-05T03:31:53.487Z,6.30
2023-03-05T03:32:26.217Z,6.70
2023-03-05T03:32:58.867Z,5.10
2023-03-05T03:33:31.547Z,5.00
2023-03-05T03:34:04.222Z,8.20
2023-03-05T03:34:36.896Z,7.20
2023-03-05T03:35:09.558Z,5.60
2023-03-05T03:35:42.322Z,7.50
2023-03-05T03:36:14.957Z,7.30
2023-03-05T03:36:47.643Z,6.20
2023-03-05T03:37:20.302Z,7.90
2023-03-05T03:37:52.969Z,5.70
2023-03-05T03:38:25.620Z,8.80
2023-03-05T03:38:58.280Z,7.80
2023-03-05T03:39:30.974Z,7.60
2023-03-05T03:40:03.626Z,8.40
2023-03-05T03:40:36.292Z,6.40
2023-03-05T03:41:08.990Z,6.30
2023-03-05T03:41:41.645Z,6.10
2023-03-05T03:42:14.321Z,6.50
2023-03-05T03:42:47.000Z,6.60
2023-03-05T03:43:19.658Z,8.00
2023-03-05T03:43:52.320Z,5.80
2023-03-05T03:44:25.001Z,9.40
2023-03-05T03:44:57.651Z,6.10
2023-03-05T03:45:30.332Z,5.80
2023-03-05T03:46:03.006Z,6.90
2023-03-05T03:46:35.790Z,5.60
2023-03-05T03:47:08.412Z,8.40
2023-03-05T03:47:41.103Z,8.50
2023-03-05T03:48:13.782Z,5.40
2023-03-05T03:48:46.436Z,5.00
2023-03-05T03:49:19.152Z,6.90
2023-03-05T03:49:51.811Z,9.70
2023-03-05T03:50:24.475Z,5.30
2023-03-05T03:50:57.160Z,7.90
2023-03-05T03:51:29.971Z,5.20
2023-03-05T03:52:02.647Z,5.90
2023-03-05T03:52:35.318Z,8.10
2023-03-05T03:53:08.005Z,6.30
2023-03-05T03:53:40.665Z,5.20
2023-03-05T03:54:13.346Z,7.50
2023-03-05T03:54:46.034Z,10.00
2023-03-05T03:55:18.670Z,8.30
2023-03-05T03:55:51.330Z,5.40
2023-03-05T03:56:24.021Z,6.50
2023-03-05T03:56:56.683Z,5.50
2023-03-05T03:57:29.340Z,8.10
2023-03-05T03:58:02.018Z,7.10
2023-03-05T03:58:34.668Z,8.80
2023-03-05T03:59:07.335Z,6.80
2023-03-05T03:59:40.013Z,5.80
2023-03-05T04:00:12.681Z,6.20
2023-03-05T04:00:45.363Z,6.70
2023-03-05T04:01:18.002Z,6.90
2023-03-05T04:01:50.673Z,6.40
2023-03-05T04:02:23.393Z,6.50
2023-03-05T04:02:56.042Z,7.40
2023-03-05T04:03:28.713Z,8.20
2023-03-05T04:04:01.455Z,4.80
2023-03-05T04:04:34.151Z,8.20
2023-03-05T04:05:06.793Z,4.20
2023-03-05T04:05:39.470Z,6.60
2023-03-05T04:06:12.157Z,7.20
2023-03-05T04:06:44.827Z,5.50
2023-03-05T04:07:17.498Z,5.90
2023-03-05T04:07:50.169Z,4.20
2023-03-05T04:08:22.829Z,6.60
2023-03-05T04:08:55.504Z,6.20
2023-03-05T04:09:28.189Z,6.30
2023-03-05T04:09:59.293Z,7.20
2023-03-05T04:10:31.951Z,6.40
2023-03-05T04:11:04.640Z,5.20
2023-03-05T04:11:37.320Z,5.70
2023-03-05T04:12:09.987Z,8.70
2023-03-05T04:12:42.652Z,6.90
2023-03-05T04:13:15.307Z,5.20
2023-03-05T04:13:47.971Z,6.40
2023-03-05T04:14:20.664Z,6.20
2023-03-05T04:14:53.310Z,6.50
2023-03-05T04:15:25.969Z,5.20
2023-03-05T04:15:58.651Z,7.40
2023-03-05T04:16:31.330Z,6.20
2023-03-05T04:17:04.001Z,6.20
2023-03-05T04:17:36.676Z,7.40
2023-03-05T04:18:09.339Z,8.90
2023-03-05T04:18:42.046Z,7.00
2023-03-05T04:19:14.749Z,6.40
2023-03-05T04:19:47.418Z,5.80
2023-03-05T04:20:20.098Z,6.10
2023-03-05T04:20:52.774Z,6.00
2023-03-05T04:21:25.508Z,6.50
2023-03-05T04:21:58.140Z,8.40
2023-03-05T04:22:30.827Z,5.30
2023-03-05T04:23:03.482Z,6.70
2023-03-05T04:23:36.152Z,5.70
2023-03-05T04:24:08.838Z,8.70
2023-03-05T04:24:41.501Z,7.50
2023-03-05T04:25:14.195Z,6.30
2023-03-05T04:25:46.846Z,8.70
2023-03-05T04:26:19.540Z,7.60
2023-03-05T04:26:52.200Z,7.10
2023-03-05T04:27:24.879Z,10.70
2023-03-05T04:27:57.542Z,6.70
2023-03-05T04:28:30.217Z,5.40
2023-03-05T04:29:02.899Z,3.90
2023-03-05T04:29:35.546Z,7.40
2023-03-05T04:30:08.234Z,5.30
2023-03-05T04:30:40.899Z,8.00
2023-03-05T04:31:13.674Z,6.10
2023-03-05T04:31:46.380Z,9.00
2023-03-05T04:32:19.092Z,6.50
2023-03-05T04:32:51.781Z,7.40
2023-03-05T04:33:24.445Z,5.60
2023-03-05T04:33:57.120Z,6.50
2023-03-05T04:34:29.778Z,8.20
2023-03-05T04:35:02.446Z,6.10
2023-03-05T04:35:35.121Z,5.30
2023-03-05T04:36:06.193Z,5.50
2023-03-05T04:36:38.901Z,5.10
2023-03-05T04:37:11.569Z,6.80
2023-03-05T04:37:44.240Z,8.50
2023-03-05T04:38:16.956Z,5.40
2023-03-05T04:38:49.595Z,7.80
2023-03-05T04:39:22.258Z,7.60
2023-03-05T04:39:54.921Z,7.70
2023-03-05T04:40:27.620Z,7.00
2023-03-05T04:41:00.276Z,7.60
2023-03-05T04:41:32.941Z,6.80
2023-03-05T04:42:05.626Z,6.00
2023-03-05T04:42:38.294Z,7.50
2023-03-05T04:43:10.958Z,6.60
2023-03-05T04:43:43.614Z,6.10
2023-03-05T04:44:16.291Z,6.80
2023-03-05T04:44:48.968Z,6.40
2023-03-05T04:45:21.669Z,7.00
2023-03-05T04:45:54.326Z,7.50
2023-03-05T04:46:27.066Z,5.30
2023-03-05T04:46:59.720Z,5.90
2023-03-05T04:47:32.386Z,5.20
2023-03-05T04:48:05.042Z,6.90
2023-03-05T04:48:37.716Z,6.70
2023-03-05T04:49:10.367Z,5.00
2023-03-05T04:49:43.045Z,8.40
2023-03-05T04:50:15.718Z,6.20
2023-03-05T04:50:48.387Z,7.70
2023-03-05T04:51:21.091Z,7.50
2023-03-05T04:51:53.926Z,6.00
2023-03-05T04:52:26.593Z,7.70
2023-03-05T04:52:59.273Z,7.60
2023-03-05T04:53:31.955Z,6.60
2023-03-05T04:54:04.608Z,8.10
2023-03-05T04:54:37.285Z,7.70
2023-03-05T04:55:09.964Z,8.60
2023-03-05T04:55:42.636Z,7.30
2023-03-05T04:56:15.279Z,5.30
2023-03-05T04:56:47.970Z,7.80
2023-03-05T04:57:22.174Z,8.50
2023-03-05T04:57:49.257Z,6.20
2023-03-05T04:58:21.944Z,7.90
2023-03-05T04:58:54.590Z,7.60
2023-03-05T04:59:27.263Z,4.90
2023-03-05T04:59:59.961Z,7.40
2023-03-05T05:00:32.620Z,6.20
2023-03-05T05:01:05.298Z,5.60
2023-03-05T05:01:38.034Z,9.70
2023-03-05T05:02:10.687Z,6.20
2023-03-05T05:02:43.516Z,8.70
2023-03-05T05:03:16.260Z,7.40
2023-03-05T05:03:48.961Z,6.60
2023-03-05T05:04:21.639Z,10.50
2023-03-05T05:04:54.339Z,7.10
2023-03-05T05:05:26.994Z,5.40
2023-03-05T05:05:59.686Z,7.30
2023-03-05T05:06:32.351Z,6.60
2023-03-05T05:07:05.024Z,6.40
2023-03-05T05:07:37.687Z,5.70
2023-03-05T05:08:10.381Z,9.90
2023-03-05T05:08:43.040Z,5.80
2023-03-05T05:09:15.706Z,5.10
2023-03-05T05:09:48.380Z,9.00
2023-03-05T05:10:21.050Z,8.00
2023-03-05T05:10:53.746Z,4.30
2023-03-05T05:11:26.426Z,5.50
2023-03-05T05:11:59.087Z,5.10
2023-03-05T05:12:31.748Z,7.80
2023-03-05T05:13:04.418Z,6.50
2023-03-05T05:13:37.103Z,9.10
2023-03-05T05:14:09.760Z,6.20
2023-03-05T05:14:42.444Z,6.10
2023-03-05T05:15:15.117Z,8.20
2023-03-05T05:15:47.783Z,6.70
2023-03-05T05:16:20.599Z,3.90
2023-03-05T05:16:53.277Z,5.60
2023-03-05T05:17:25.930Z,7.40
2023-03-05T05:17:58.606Z,5.00
2023-03-05T05:18:31.254Z,7.10
2023-03-05T05:19:03.995Z,7.90
2023-03-05T05:19:36.725Z,6.50
2023-03-05T05:20:09.386Z,5.60
2023-03-05T05:20:42.063Z,5.30
2023-03-05T05:21:13.169Z,5.60
2023-03-05T05:21:45.839Z,6.90
2023-03-05T05:22:18.516Z,6.70
2023-03-05T05:22:51.208Z,6.50
2023-03-05T05:23:23.884Z,7.20
2023-03-05T05:23:56.556Z,6.50
2023-03-05T05:24:29.239Z,8.40
2023-03-05T05:25:01.909Z,7.00
2023-03-05T05:25:34.572Z,6.70
2023-03-05T05:26:07.272Z,6.30
2023-03-05T05:26:39.936Z,6.50
2023-03-05T05:27:12.610Z,7.80
2023-03-05T05:27:45.307Z,10.10
2023-03-05T05:28:17.952Z,5.00
2023-03-05T05:28:50.628Z,5.90
2023-03-05T05:29:23.302Z,6.20
2023-03-05T05:29:55.960Z,8.10
2023-03-05T05:30:28.636Z,5.50
2023-03-05T05:31:01.301Z,7.30
2023-03-05T05:31:34.017Z,7.10
2023-03-05T05:32:06.690Z,5.60
2023-03-05T05:32:39.434Z,6.50
2023-03-05T05:33:12.124Z,7.10
2023-03-05T05:33:44.804Z,6.60
2023-03-05T05:34:17.489Z,8.60
2023-03-05T05:34:50.148Z,5.60
2023-03-05T05:35:22.890Z,6.20
2023-03-05T05:35:55.603Z,7.60
2023-03-05T05:36:28.272Z,5.60
2023-03-05T05:37:00.943Z,8.50
2023-03-05T05:37:33.608Z,4.70
2023-03-05T05:38:06.280Z,7.30
2023-03-05T05:38:38.957Z,6.60
2023-03-05T05:39:11.611Z,5.50
2023-03-05T05:39:44.292Z,8.30
2023-03-05T05:40:16.982Z,6.90
2023-03-05T05:40:49.641Z,7.40
2023-03-05T05:41:22.344Z,5.60
2023-03-05T05:41:54.999Z,4.70
2023-03-05T05:42:27.673Z,6.00
2023-03-05T05:42:54.519Z,5.80
2023-03-05T05:43:27.188Z,7.50
2023-03-05T05:43:59.849Z,7.20
2023-03-05T05:44:32.542Z,6.20
2023-03-05T05:45:05.199Z,5.60
2023-03-05T05:45:38.122Z,6.30
2023-03-05T05:46:04.510Z,5.80
2023-03-05T05:46:37.258Z,6.20
2023-03-05T05:47:09.924Z,6.60
2023-03-05T05:47:42.588Z,6.60
2023-03-05T05:48:15.269Z,6.80
2023-03-05T05:48:47.931Z,5.20
2023-03-05T05:49:20.602Z,6.90
2023-03-05T05:49:53.274Z,7.60
2023-03-05T05:50:25.943Z,7.10
2023-03-05T05:50:58.623Z,4.10
2023-03-05T05:51:31.307Z,6.40
2023-03-05T05:52:03.970Z,5.30
2023-03-05T05:52:36.632Z,5.30
2023-03-05T05:53:09.308Z,6.30
2023-03-05T05:53:41.967Z,5.50
2023-03-05T05:54:14.644Z,5.40
2023-03-05T05:54:47.358Z,8.50
2023-03-05T05:55:20.023Z,8.60
2023-03-05T05:55:52.684Z,6.40
2023-03-05T05:56:25.400Z,5.40
2023-03-05T05:56:58.043Z,10.30
2023-03-05T05:57:30.712Z,6.20
2023-03-05T05:58:03.396Z,5.20
2023-03-05T05:58:36.055Z,5.20
2023-03-05T05:59:08.723Z,5.40
2023-03-05T05:59:41.386Z,5.60
2023-03-05T06:00:14.067Z,5.40
2023-03-05T06:00:46.767Z,4.20
2023-03-05T06:01:19.453Z,6.00
2023-03-05T06:01:52.128Z,7.70
2023-03-05T06:02:24.806Z,5.80
2023-03-05T06:02:57.538Z,5.50
2023-03-05T06:03:30.329Z,5.30
2023-03-05T06:04:03.004Z,5.10
2023-03-05T06:04:35.672Z,9.10
2023-03-05T06:05:08.364Z,5.50
2023-03-05T06:05:41.035Z,6.60
2023-03-05T06:06:13.703Z,6.70
2023-03-05T06:06:46.394Z,7.20
2023-03-05T06:07:19.074Z,7.40
2023-03-05T06:07:51.742Z,8.50
2023-03-05T06:08:24.410Z,5.30
2023-03-05T06:08:57.093Z,9.10
2023-03-05T06:09:29.754Z,8.20
2023-03-05T06:10:02.444Z,7.20
2023-03-05T06:10:35.119Z,6.80
2023-03-05T06:11:07.776Z,6.60
2023-03-05T06:11:40.493Z,5.80
2023-03-05T06:12:13.150Z,6.00
2023-03-05T06:12:45.815Z,5.90
2023-03-05T06:13:18.491Z,4.60
2023-03-05T06:13:51.170Z,7.60
2023-03-05T06:14:23.835Z,6.00
2023-03-05T06:14:56.486Z,6.10
2023-03-05T06:15:29.178Z,6.20
2023-03-05T06:16:01.836Z,7.70
2023-03-05T06:16:34.698Z,5.80
2023-03-05T06:17:07.363Z,4.90
2023-03-05T06:17:40.036Z,5.70
2023-03-05T06:18:12.712Z,6.40
2023-03-05T06:18:45.404Z,8.00
2023-03-05T06:19:18.062Z,5.70
2023-03-05T06:19:50.724Z,9.90
2023-03-05T06:20:23.407Z,5.60
2023-03-05T06:20:56.070Z,6.60
2023-03-05T06:21:28.758Z,4.60
2023-03-05T06:22:01.430Z,7.40
2023-03-05T06:22:34.097Z,8.10
2023-03-05T06:23:06.758Z,7.60
2023-03-05T06:23:39.427Z,9.60
2023-03-05T06:24:12.089Z,6.50
2023-03-05T06:24:44.757Z,9.70
2023-03-05T06:25:17.425Z,6.30
2023-03-05T06:25:50.076Z,5.30
2023-03-05T06:26:22.764Z,6.50
2023-03-05T06:26:55.465Z,8.20
2023-03-05T06:27:28.099Z,5.10
2023-03-05T06:28:00.759Z,8.80
2023-03-05T06:28:33.434Z,5.50
2023-03-05T06:29:06.100Z,6.70
2023-03-05T06:29:38.753Z,8.00
2023-03-05T06:30:11.421Z,7.40
2023-03-05T06:30:44.138Z,7.80
2023-03-05T06:31:16.790Z,7.00
2023-03-05T06:31:49.496Z,6.60
2023-03-05T06:32:22.233Z,9.10
2023-03-05T06:32:54.955Z,5.10
2023-03-05T06:33:27.615Z,5.80
2023-03-05T06:34:00.278Z,9.80
2023-03-05T06:34:32.954Z,6.70
2023-03-05T06:35:05.620Z,7.60
2023-03-05T06:35:38.389Z,6.00
2023-03-05T06:36:11.062Z,4.90
2023-03-05T06:36:43.799Z,7.20
2023-03-05T06:37:16.472Z,7.30
2023-03-05T06:37:49.146Z,6.70
2023-03-05T06:38:21.807Z,11.10
2023-03-05T06:38:54.483Z,7.50
2023-03-05T06:39:27.149Z,6.60
2023-03-05T06:39:59.817Z,4.70
2023-03-05T06:40:32.486Z,3.60
2023-03-05T06:41:05.150Z,6.10
2023-03-05T06:41:37.828Z,7.20
2023-03-05T06:42:10.540Z,6.10
2023-03-05T06:42:43.195Z,9.80
2023-03-05T06:43:15.861Z,5.00
2023-03-05T06:43:48.536Z,6.70
2023-03-05T06:44:21.216Z,6.10
2023-03-05T06:44:53.885Z,9.50
2023-03-05T06:45:26.559Z,8.40
2023-03-05T06:45:59.302Z,5.90
2023-03-05T06:46:31.944Z,8.00
2023-03-05T06:47:04.613Z,6.00
2023-03-05T06:47:37.289Z,4.20
2023-03-05T06:48:09.951Z,5.90
2023-03-05T06:48:42.625Z,5.30
2023-03-05T06:49:15.289Z,6.20
2023-03-05T06:49:47.956Z,9.40
2023-03-05T06:50:20.623Z,5.90
2023-03-05T06:50:53.287Z,7.70
2023-03-05T06:51:25.955Z,6.20
2023-03-05T06:51:58.645Z,4.90
2023-03-05T06:52:31.329Z,7.80
2023-03-05T06:53:03.998Z,6.40
2023-03-05T06:53:36.661Z,8.50
2023-03-05T06:54:09.343Z,5.90
2023-03-05T06:54:42.009Z,6.80
2023-03-05T06:55:14.670Z,5.90
2023-03-05T06:55:47.346Z,6.30
2023-03-05T06:56:19.998Z,6.30
2023-03-05T06:56:52.660Z,7.60
2023-03-05T06:57:25.485Z,6.20
2023-03-05T06:57:58.151Z,5.70
2023-03-05T06:58:30.819Z,5.30
2023-03-05T06:59:03.501Z,7.40
2023-03-05T06:59:36.162Z,4.50
2023-03-05T07:00:08.875Z,5.50
2023-03-05T07:00:41.524Z,6.70
2023-03-05T07:01:14.261Z,4.40
2023-03-05T07:01:46.921Z,5.70
2023-03-05T07:02:19.632Z,6.00
2023-03-05T07:02:52.281Z,7.80
2023-03-05T07:03:24.946Z,7.50
2023-03-05T07:03:57.617Z,7.80
2023-03-05T07:04:30.277Z,6.50
2023-03-05T07:05:02.950Z,6.10
2023-03-05T07:05:35.631Z,7.10
2023-03-05T07:06:08.292Z,6.70
2023-03-05T07:06:40.960Z,6.50
2023-03-05T07:07:13.645Z,7.80
2023-03-05T07:07:46.317Z,4.10
2023-03-05T07:08:18.999Z,8.10
2023-03-05T07:08:51.684Z,7.10
2023-03-05T07:09:24.339Z,3.60
2023-03-05T07:09:57.023Z,5.40
2023-03-05T07:10:29.676Z,6.70
2023-03-05T07:11:02.350Z,6.00